createdAt,value
2018-09-18T00:01:27.192Z,4.20
2018-09-18T00:03:56.001Z,4.27
2018-09-18T00:06:24.816Z,4.77
2018-09-18T00:08:53.631Z,4.00
2018-09-18T00:11:22.442Z,4.57
2018-09-18T00:13:51.281Z,4.57
2018-09-18T00:16:20.083Z,4.53
2018-09-18T00:18:48.884Z,4.70
2018-09-18T00:21:17.716Z,4.27
2018-09-18T00:23:46.515Z,4.47
2018-09-18T00:26:15.320Z,4.50
2018-09-18T00:28:44.179Z,4.83
2018-09-18T00:31:12.979Z,5.00
2018-09-18T00:33:41.843Z,5.17
2018-09-18T00:36:10.724Z,5.03
2018-09-18T00:38:39.540Z,4.80
2018-09-18T00:41:08.325Z,4.90
2018-09-18T00:43:37.123Z,4.73
2018-09-18T00:46:05.905Z,5.00
2018-09-18T00:48:34.723Z,5.03
2018-09-18T00:51:03.503Z,4.73
2018-09-18T00:53:32.311Z,5.33
2018-09-18T00:56:01.101Z,5.43
2018-09-18T00:58:29.908Z,5.60
2018-09-18T01:00:58.702Z,4.97
2018-09-18T01:03:27.504Z,5.67
2018-09-18T01:05:56.295Z,5.40
2018-09-18T01:08:25.135Z,5.10
2018-09-18T01:10:53.960Z,5.67
2018-09-18T01:13:22.763Z,5.10
2018-09-18T01:15:51.655Z,5.47
2018-09-18T01:18:20.499Z,6.00
2018-09-18T01:20:49.299Z,5.40
2018-09-18T01:23:18.088Z,5.50
2018-09-18T01:25:46.921Z,5.50
2018-09-18T01:28:15.703Z,5.60
2018-09-18T01:30:44.556Z,5.47
2018-09-18T01:33:13.374Z,5.27
2018-09-18T01:35:42.193Z,6.03
2018-09-18T01:38:10.967Z,4.87
2018-09-18T01:40:39.780Z,5.60
2018-09-18T01:43:09.655Z,5.67
2018-09-18T01:45:38.536Z,5.20
2018-09-18T01:48:07.427Z,5.87
2018-09-18T01:50:36.279Z,5.33
2018-09-18T01:53:05.151Z,5.70
2018-09-18T01:55:34.782Z,5.30
2018-09-18T01:58:03.588Z,5.33
2018-09-18T02:00:32.402Z,5.87
2018-09-18T02:03:01.244Z,5.57
2018-09-18T02:05:30.170Z,5.80
2018-09-18T02:07:58.951Z,5.50
2018-09-18T02:10:27.735Z,5.63
2018-09-18T02:12:56.560Z,5.87
2018-09-18T02:15:25.368Z,6.23
2018-09-18T02:17:54.154Z,5.80
2018-09-18T02:20:22.975Z,6.10
2018-09-18T02:22:51.772Z,6.33
2018-09-18T02:25:20.570Z,6.07
2018-09-18T02:27:49.384Z,6.60
2018-09-18T02:30:18.167Z,6.17
2018-09-18T02:32:47.015Z,6.80
2018-09-18T02:35:15.783Z,6.20
2018-09-18T02:37:44.602Z,6.47
2018-09-18T02:40:13.384Z,6.00
2018-09-18T02:42:42.276Z,6.13
2018-09-18T02:45:11.054Z,6.23
2018-09-18T02:47:39.859Z,6.53
2018-09-18T02:50:08.648Z,6.50
2018-09-18T02:52:37.543Z,6.23
2018-09-18T02:55:06.347Z,7.03
2018-09-18T02:57:35.180Z,6.63
2018-09-18T03:00:04.076Z,6.60
2018-09-18T03:02:32.936Z,6.17
2018-09-18T03:05:01.716Z,6.97
2018-09-18T03:07:30.552Z,7.27
2018-09-18T03:09:59.333Z,7.43
2018-09-18T03:12:28.146Z,6.60
2018-09-18T03:14:56.949Z,7.17
2018-09-18T03:17:25.711Z,7.50
2018-09-18T03:19:54.491Z,7.20
2018-09-18T03:22:23.297Z,7.00
2018-09-18T03:24:52.192Z,7.40
2018-09-18T03:27:21.036Z,6.43
2018-09-18T03:29:49.843Z,6.30
2018-09-18T03:32:18.642Z,7.13
2018-09-18T03:34:47.430Z,7.03
2018-09-18T03:37:16.228Z,7.83
2018-09-18T03:39:45.023Z,7.77
2018-09-18T03:42:13.830Z,7.77
2018-09-18T03:44:42.729Z,7.67
2018-09-18T03:47:11.520Z,7.33
2018-09-18T03:49:40.412Z,7.40
2018-09-18T03:52:09.256Z,7.83
2018-09-18T03:54:38.027Z,7.40
2018-09-18T03:57:08.566Z,7.63
2018-09-18T03:59:37.362Z,6.97
2018-09-18T04:02:06.146Z,7.70
2018-09-18T04:04:34.994Z,7.10
2018-09-18T04:07:03.799Z,7.80
2018-09-18T04:09:32.595Z,7.20
2018-09-18T04:12:01.387Z,6.37
2018-09-18T04:14:30.341Z,7.13
2018-09-18T04:16:59.150Z,6.70
2018-09-18T04:19:27.951Z,7.20
2018-09-18T04:21:56.723Z,6.30
2018-09-18T04:24:25.540Z,7.13
2018-09-18T04:26:54.324Z,6.90
2018-09-18T04:29:23.497Z,6.60
2018-09-18T04:31:52.276Z,6.80
2018-09-18T04:34:21.061Z,7.20
2018-09-18T04:36:49.853Z,7.07
2018-09-18T04:39:18.631Z,6.80
2018-09-18T04:41:47.423Z,6.70
2018-09-18T04:44:16.203Z,6.47
2018-09-18T04:46:45.093Z,7.13
2018-09-18T04:49:14.039Z,7.43
2018-09-18T04:51:42.891Z,7.07
2018-09-18T04:54:11.700Z,7.07
2018-09-18T04:56:40.768Z,7.00
2018-09-18T04:59:09.564Z,6.57
2018-09-18T05:01:38.389Z,6.50
2018-09-18T05:04:07.175Z,6.60
2018-09-18T05:06:36.041Z,6.20
2018-09-18T05:09:07.305Z,7.00
2018-09-18T05:11:36.070Z,7.20
2018-09-18T05:14:05.204Z,6.90
2018-09-18T05:16:34.355Z,6.67
2018-09-18T05:19:03.146Z,7.03
2018-09-18T05:21:31.948Z,6.47
2018-09-18T05:24:00.796Z,7.20
2018-09-18T05:26:29.559Z,6.60
2018-09-18T05:28:59.314Z,7.30
2018-09-18T05:31:28.105Z,6.70
2018-09-18T05:33:57.168Z,6.57
2018-09-18T05:36:25.931Z,8.13
2018-09-18T05:38:54.789Z,7.20
2018-09-18T05:41:23.575Z,7.30
2018-09-18T05:43:52.374Z,7.70
2018-09-18T05:46:21.184Z,7.10
2018-09-18T05:48:50.111Z,7.63
2018-09-18T05:51:18.936Z,6.63
2018-09-18T05:53:47.764Z,6.93
2018-09-18T05:56:16.589Z,6.93
2018-09-18T05:58:45.477Z,7.70
2018-09-18T06:01:14.335Z,7.20
2018-09-18T06:03:43.136Z,7.30
2018-09-18T06:06:12.182Z,7.13
2018-09-18T06:08:41.491Z,8.13
2018-09-18T06:11:10.393Z,8.00
2018-09-18T06:13:39.406Z,12.77
2018-09-18T06:16:08.214Z,9.07
2018-09-18T06:18:37.131Z,7.60
2018-09-18T06:21:06.012Z,7.67
2018-09-18T06:23:34.825Z,8.10
2018-09-18T06:26:03.666Z,7.63
2018-09-18T06:28:32.404Z,8.40
2018-09-18T06:31:01.220Z,8.00
2018-09-18T06:33:30.014Z,7.90
2018-09-18T06:35:58.823Z,8.23
2018-09-18T06:38:27.707Z,8.37
2018-09-18T06:40:56.460Z,9.17
2018-09-18T06:43:25.256Z,8.47
2018-09-18T06:45:54.071Z,8.23
2018-09-18T06:48:22.892Z,7.67
2018-09-18T06:50:52.136Z,7.40
2018-09-18T06:53:21.071Z,7.00
2018-09-18T06:55:49.892Z,7.27
2018-09-18T06:58:18.704Z,7.00
2018-09-18T07:00:47.608Z,7.80
2018-09-18T07:03:17.013Z,7.27
2018-09-18T07:05:46.083Z,7.07
2018-09-18T07:08:15.061Z,7.43
2018-09-18T07:10:46.115Z,6.83
2018-09-18T07:13:14.960Z,7.03
2018-09-18T07:15:43.850Z,7.30
2018-09-18T07:18:12.745Z,6.83
2018-09-18T07:20:41.852Z,6.70
2018-09-18T07:23:10.650Z,7.03
2018-09-18T07:25:39.500Z,12.10
2018-09-18T07:28:08.313Z,8.93
2018-09-18T07:30:37.116Z,6.60
2018-09-18T07:33:05.893Z,6.27
2018-09-18T07:35:34.714Z,6.57
2018-09-18T07:38:03.536Z,6.83
2018-09-18T07:40:32.320Z,6.43
2018-09-18T07:43:01.229Z,6.77
2018-09-18T07:45:30.263Z,6.30
2018-09-18T07:47:59.108Z,6.00
2018-09-18T07:50:27.867Z,6.70
2018-09-18T07:52:56.692Z,5.70
2018-09-18T07:55:25.480Z,5.60
2018-09-18T07:57:54.286Z,5.83
2018-09-18T08:00:23.080Z,6.47
2018-09-18T08:02:51.924Z,5.77
2018-09-18T08:05:20.824Z,5.90
2018-09-18T08:07:49.664Z,7.47
2018-09-18T08:10:18.529Z,6.00
2018-09-18T08:12:47.338Z,6.17
2018-09-18T08:15:16.123Z,6.07
2018-09-18T08:17:44.936Z,6.00
2018-09-18T08:20:13.760Z,6.03
2018-09-18T08:22:43.493Z,7.63
2018-09-18T08:25:12.357Z,6.40
2018-09-18T08:27:41.083Z,6.73
2018-09-18T08:30:09.950Z,7.20
2018-09-18T08:32:38.904Z,5.87
2018-09-18T08:35:07.895Z,6.73
2018-09-18T08:37:36.718Z,5.90
2018-09-18T08:40:05.639Z,5.60
2018-09-18T08:42:34.367Z,5.70
2018-09-18T08:45:03.237Z,5.70
2018-09-18T08:47:32.030Z,5.10
2018-09-18T08:50:00.840Z,5.60
2018-09-18T08:52:29.704Z,5.50
2018-09-18T08:54:58.435Z,5.33
2018-09-18T08:57:27.343Z,6.10
2018-09-18T08:59:56.116Z,5.70
2018-09-18T09:02:25.031Z,5.37
2018-09-18T09:04:53.846Z,6.40
2018-09-18T09:07:22.663Z,5.60
2018-09-18T09:09:51.476Z,5.73
2018-09-18T09:12:20.272Z,4.87
2018-09-18T09:14:49.183Z,4.90
2018-09-18T09:17:17.870Z,4.73
2018-09-18T09:19:46.681Z,4.77
2018-09-18T09:22:15.562Z,6.47
2018-09-18T09:24:44.422Z,4.40
2018-09-18T09:27:13.246Z,4.17
2018-09-18T09:29:42.278Z,4.17
2018-09-18T09:32:11.061Z,4.17
2018-09-18T09:34:39.791Z,4.22
2018-09-18T09:37:08.636Z,3.85
2018-09-18T09:39:37.392Z,3.72
2018-09-18T09:42:06.451Z,3.85
2018-09-18T09:44:35.247Z,3.85
2018-09-18T09:47:04.033Z,3.55
2018-09-18T09:49:32.821Z,3.92
2018-09-18T09:52:01.623Z,3.85
2018-09-18T09:54:30.501Z,3.62
2018-09-18T09:56:59.465Z,4.12
2018-09-18T09:59:28.625Z,3.58
2018-09-18T10:02:02.703Z,3.60
2018-09-18T10:04:31.586Z,4.03
2018-09-18T10:07:00.388Z,3.95
2018-09-18T10:09:29.205Z,3.80
2018-09-18T10:11:58.016Z,4.12
2018-09-18T10:14:26.895Z,4.12
2018-09-18T10:16:55.778Z,4.25
2018-09-18T10:19:24.595Z,4.30
2018-09-18T10:21:53.393Z,4.08
2018-09-18T10:24:22.228Z,3.92
2018-09-18T10:26:51.227Z,4.10
2018-09-18T10:29:20.008Z,4.00
2018-09-18T10:31:48.794Z,3.92
2018-09-18T10:34:17.584Z,5.08
2018-09-18T10:36:46.432Z,4.20
2018-09-18T10:39:15.368Z,3.77
2018-09-18T10:41:44.285Z,5.10
2018-09-18T10:44:13.129Z,3.72
2018-09-18T10:46:41.927Z,4.47
2018-09-18T10:49:10.888Z,3.45
2018-09-18T10:51:39.683Z,4.15
2018-09-18T10:54:08.495Z,4.05
2018-09-18T10:56:37.596Z,4.47
2018-09-18T10:59:06.416Z,4.27
2018-09-18T11:01:35.639Z,4.67
2018-09-18T11:04:05.564Z,3.33
2018-09-18T11:06:34.637Z,4.60
2018-09-18T11:09:11.220Z,4.20
2018-09-18T11:12:09.652Z,3.62
2018-09-18T11:14:38.748Z,3.40
2018-09-18T11:17:07.560Z,4.95
2018-09-18T11:19:37.897Z,4.30
2018-09-18T11:22:06.723Z,6.22
2018-09-18T11:24:35.596Z,4.30
2018-09-18T11:27:04.935Z,4.17
2018-09-18T11:29:35.197Z,6.25
2018-09-18T11:32:03.971Z,3.83
2018-09-18T11:34:32.907Z,6.47
2018-09-18T11:37:01.829Z,4.35
2018-09-18T11:39:30.796Z,7.12
2018-09-18T11:41:59.616Z,3.92
2018-09-18T11:44:28.498Z,4.50
2018-09-18T11:46:57.568Z,4.20
2018-09-18T11:49:27.147Z,3.27
2018-09-18T11:51:55.992Z,4.15
2018-09-18T11:54:24.831Z,3.50
2018-09-18T11:56:54.079Z,4.20
2018-09-18T11:59:23.052Z,3.62
2018-09-18T12:01:51.884Z,3.25
2018-09-18T12:04:20.920Z,5.60
2018-09-18T12:06:50.479Z,5.95
2018-09-18T12:09:19.389Z,3.25
2018-09-18T12:11:48.774Z,4.75
2018-09-18T12:14:17.643Z,4.10
2018-09-18T12:16:46.495Z,3.25
2018-09-18T12:19:15.447Z,5.25
2018-09-18T12:21:44.409Z,4.65
2018-09-18T12:24:13.831Z,3.47
2018-09-18T12:26:42.796Z,3.50
2018-09-18T12:29:11.601Z,3.52
2018-09-18T12:31:40.581Z,3.45
2018-09-18T12:34:11.926Z,4.72
2018-09-18T12:36:41.212Z,3.92
2018-09-18T12:39:10.516Z,3.37
2018-09-18T12:41:39.988Z,3.58
2018-09-18T12:44:08.784Z,3.72
2018-09-18T12:46:39.029Z,3.40
2018-09-18T12:49:08.104Z,3.65
2018-09-18T12:51:36.844Z,4.25
2018-09-18T12:54:05.757Z,3.12
2018-09-18T12:56:34.550Z,3.50
2018-09-18T12:59:03.452Z,3.80
2018-09-18T13:01:32.289Z,3.52
2018-09-18T13:04:01.104Z,4.45
2018-09-18T13:06:30.073Z,3.50
2018-09-18T13:08:58.770Z,3.35
2018-09-18T13:11:27.640Z,4.12
2018-09-18T13:14:02.896Z,3.37
2018-09-18T13:16:32.041Z,3.85
2018-09-18T13:19:01.377Z,3.70
2018-09-18T13:21:55.154Z,3.60
2018-09-18T13:24:24.321Z,4.45
2018-09-18T13:26:53.438Z,4.25
2018-09-18T13:29:22.325Z,3.98
2018-09-18T13:31:51.611Z,4.80
2018-09-18T13:34:20.556Z,5.28
2018-09-18T13:36:55.764Z,4.33
2018-09-18T13:39:24.757Z,5.90
2018-09-18T13:41:53.709Z,9.20
2018-09-18T13:44:22.617Z,8.30
2018-09-18T13:46:51.470Z,12.03
2018-09-18T13:49:20.306Z,5.33
2018-09-18T13:51:49.160Z,5.70
2018-09-18T13:54:17.969Z,6.20
2018-09-18T13:56:46.919Z,3.98
2018-09-18T13:59:15.648Z,4.42
2018-09-18T14:01:44.815Z,4.90
2018-09-18T14:04:13.448Z,3.22
2018-09-18T14:06:42.440Z,3.90
2018-09-18T14:09:12.931Z,3.70
2018-09-18T14:11:43.389Z,4.08
2018-09-18T14:14:12.594Z,4.50
2018-09-18T14:16:41.797Z,3.25
2018-09-18T14:19:10.896Z,3.83
2018-09-18T14:21:39.729Z,4.08
2018-09-18T14:24:08.560Z,4.20
2018-09-18T14:26:37.534Z,3.65
2018-09-18T14:29:06.257Z,5.15
2018-09-18T14:31:35.076Z,3.30
2018-09-18T14:34:04.911Z,3.30
2018-09-18T14:36:33.913Z,5.22
2018-09-18T14:39:02.921Z,3.72
2018-09-18T14:41:36.969Z,4.20
2018-09-18T14:45:09.464Z,3.45
2018-09-18T14:47:38.626Z,4.25
2018-09-18T14:50:07.633Z,3.83
2018-09-18T14:52:36.607Z,3.80
2018-09-18T14:55:07.873Z,5.20
2018-09-18T14:57:37.247Z,4.40
2018-09-18T15:00:08.681Z,4.15
2018-09-18T15:02:37.472Z,3.62
2018-09-18T15:05:06.722Z,4.15
2018-09-18T15:07:35.792Z,4.58
2018-09-18T15:10:04.784Z,4.47
2018-09-18T15:12:33.707Z,5.05
2018-09-18T15:15:08.363Z,4.70
2018-09-18T15:17:37.176Z,4.25
2018-09-18T15:20:08.336Z,3.72
2018-09-18T15:22:37.276Z,4.10
2018-09-18T15:25:06.412Z,4.58
2018-09-18T15:27:36.558Z,4.15
2018-09-18T15:30:06.583Z,4.30
2018-09-18T15:32:35.439Z,4.00
2018-09-18T15:35:05.810Z,3.92
2018-09-18T15:37:34.674Z,3.90
2018-09-18T15:40:08.884Z,3.70
2018-09-18T15:43:00.091Z,4.05
2018-09-18T15:45:48.801Z,3.58
2018-09-18T15:48:22.459Z,4.08
2018-09-18T15:50:51.758Z,4.17
2018-09-18T15:53:38.971Z,3.77
2018-09-18T15:56:17.845Z,3.83
2018-09-18T15:58:46.675Z,5.90
2018-09-18T16:01:15.633Z,5.92
2018-09-18T16:04:00.402Z,4.25
2018-09-18T16:09:20.536Z,3.92
2018-09-18T16:11:49.499Z,4.00
2018-09-18T16:14:18.395Z,4.00
2018-09-18T16:20:03.826Z,4.55
2018-09-18T16:23:02.354Z,6.40
2018-09-18T16:30:00.112Z,3.60
2018-09-18T16:32:36.376Z,15.53
2018-09-18T16:35:05.374Z,4.20
2018-09-18T16:40:43.396Z,3.37
2018-09-18T16:43:12.170Z,3.42
2018-09-18T16:45:41.046Z,4.50
2018-09-18T16:51:21.911Z,3.95
2018-09-18T16:53:50.747Z,3.90
2018-09-18T16:56:19.518Z,6.72
2018-09-18T16:58:48.324Z,7.33
2018-09-18T17:01:17.134Z,4.90
2018-09-18T17:03:46.029Z,6.22
2018-09-18T17:06:15.866Z,3.85
2018-09-18T17:08:44.912Z,3.80
2018-09-18T17:11:13.918Z,3.47
2018-09-18T17:13:42.967Z,2.90
2018-09-18T17:16:13.068Z,2.60
2018-09-18T17:18:42.159Z,2.50
2018-09-18T17:21:10.977Z,2.80
2018-09-18T17:23:40.277Z,2.90
2018-09-18T17:26:11.440Z,2.60
2018-09-18T17:28:40.641Z,2.87
2018-09-18T17:31:09.295Z,3.10
2018-09-18T17:33:38.351Z,3.60
2018-09-18T17:36:07.311Z,3.23
2018-09-18T17:38:36.321Z,3.07
2018-09-18T17:41:05.724Z,2.80
2018-09-18T17:43:34.729Z,3.07
2018-09-18T17:46:03.833Z,3.07
2018-09-18T17:48:32.963Z,3.40
2018-09-18T17:51:03.205Z,3.47
2018-09-18T17:53:42.555Z,3.47
2018-09-18T17:56:11.620Z,2.50
2018-09-18T17:58:43.403Z,2.27
2018-09-18T18:01:14.231Z,2.00
2018-09-18T18:03:47.813Z,2.10
2018-09-18T18:06:30.356Z,1.70
2018-09-18T18:12:32.774Z,2.87
2018-09-18T18:15:02.821Z,1.87
2018-09-18T18:17:33.471Z,1.40
2018-09-18T18:20:03.130Z,1.30
2018-09-18T18:22:32.487Z,1.40
2018-09-18T18:25:02.122Z,1.80
2018-09-18T18:27:32.159Z,2.30
2018-09-18T18:30:02.649Z,1.90
2018-09-18T18:32:32.619Z,1.60
2018-09-18T18:35:02.415Z,1.33
2018-09-18T18:37:33.934Z,1.20
2018-09-18T18:40:04.136Z,1.20
2018-09-18T18:42:36.796Z,1.30
2018-09-18T18:45:06.780Z,1.30
2018-09-18T18:47:40.075Z,1.50
2018-09-18T18:50:09.907Z,1.40
2018-09-18T18:52:40.785Z,1.30
2018-09-18T18:55:10.482Z,1.70
2018-09-18T19:04:05.022Z,1.30
2018-09-18T19:06:48.568Z,1.50
2018-09-18T19:09:31.293Z,1.80
2018-09-18T19:12:14.771Z,1.80
2018-09-18T19:15:02.624Z,1.70
2018-09-18T19:21:03.706Z,2.30
2018-09-18T19:24:16.686Z,1.50
2018-09-18T19:27:00.571Z,1.47
2018-09-18T19:32:40.789Z,1.50
2018-09-18T19:35:42.797Z,1.50
2018-09-18T19:38:27.081Z,1.40
2018-09-18T19:41:21.872Z,2.00
2018-09-18T19:43:56.909Z,1.80
2018-09-18T19:46:30.614Z,1.63
2018-09-18T20:36:23.836Z,1.67
2018-09-18T20:38:58.560Z,1.50
2018-09-18T20:41:36.684Z,1.60
2018-09-18T20:44:05.749Z,1.63
2018-09-18T20:46:35.849Z,1.97
2018-09-18T20:51:34.538Z,1.97
2018-09-18T20:54:03.738Z,2.03
2018-09-18T20:56:32.596Z,1.40
2018-09-18T20:59:01.632Z,1.40
2018-09-18T21:01:30.535Z,1.60
2018-09-18T21:03:59.555Z,1.90
2018-09-18T21:06:29.309Z,2.00
2018-09-18T21:08:59.202Z,1.90
2018-09-18T21:11:28.095Z,1.60
2018-09-18T21:13:56.967Z,1.60
2018-09-18T21:16:25.929Z,2.00
2018-09-18T21:18:54.837Z,1.80
2018-09-18T21:21:23.707Z,1.70
2018-09-18T21:23:52.497Z,1.83
2018-09-18T21:26:21.360Z,1.53
2018-09-18T21:28:50.291Z,1.97
2018-09-18T21:31:19.080Z,1.47
2018-09-18T21:33:47.863Z,1.60
2018-09-18T21:36:16.752Z,1.40
2018-09-18T21:38:45.614Z,1.40
2018-09-18T21:41:14.434Z,1.57
2018-09-18T21:43:43.259Z,1.70
2018-09-18T21:46:12.100Z,1.80
2018-09-18T21:48:41.037Z,1.70
2018-09-18T21:51:10.318Z,2.07
2018-09-18T21:53:39.659Z,1.87
2018-09-18T21:56:08.588Z,2.63
2018-09-18T21:58:37.524Z,2.40
2018-09-18T22:01:06.993Z,2.10
2018-09-18T22:03:36.911Z,1.70
2018-09-18T22:06:06.414Z,1.83
2018-09-18T22:08:37.377Z,1.90
2018-09-18T22:11:07.194Z,1.73
2018-09-18T22:13:36.366Z,1.90
2018-09-18T22:16:07.413Z,1.77
2018-09-18T22:18:36.400Z,1.80
2018-09-18T22:21:05.913Z,1.90
2018-09-18T22:23:34.804Z,2.17
2018-09-18T22:26:03.862Z,1.90
2018-09-18T22:28:32.699Z,2.10
2018-09-18T22:31:01.553Z,2.47
2018-09-18T22:33:30.666Z,2.47
2018-09-18T22:35:59.625Z,2.00
2018-09-18T22:38:29.426Z,2.30
2018-09-18T22:40:58.419Z,2.60
2018-09-18T22:43:27.380Z,2.10
2018-09-18T22:45:56.564Z,2.00
2018-09-18T22:48:25.474Z,1.90
2018-09-18T22:50:54.501Z,2.00
2018-09-18T22:53:25.457Z,1.97
2018-09-18T22:55:54.468Z,1.93
2018-09-18T22:58:23.392Z,2.10
2018-09-18T23:00:52.357Z,2.30
2018-09-18T23:03:21.300Z,1.90
2018-09-18T23:05:50.458Z,2.20
2018-09-18T23:08:19.691Z,2.07
2018-09-18T23:10:48.631Z,2.30
2018-09-18T23:13:17.670Z,2.13
2018-09-18T23:15:46.705Z,2.40
2018-09-18T23:18:15.721Z,2.20
2018-09-18T23:20:44.790Z,2.00
2018-09-18T23:23:13.708Z,2.07
2018-09-18T23:25:42.652Z,2.00
2018-09-18T23:28:11.549Z,2.07
2018-09-18T23:30:40.575Z,2.20
2018-09-18T23:33:09.388Z,2.23
2018-09-18T23:35:38.332Z,2.10
2018-09-18T23:38:07.323Z,2.10
2018-09-18T23:40:36.300Z,2.37
2018-09-18T23:43:05.326Z,2.10
2018-09-18T23:45:34.321Z,2.10
2018-09-18T23:48:03.441Z,2.30
2018-09-18T23:50:32.395Z,2.53
2018-09-18T23:53:01.420Z,2.30
2018-09-18T23:55:30.341Z,2.13
2018-09-18T23:57:59.337Z,2.03
